Time;durP1;ratioP1;P1;durP2;ratioP2;P2;SDS_P1;SDS_P2;PMS_P1;PMS_P2;Temp;Humidity;BMP_temperature;BMP_pressure;BME280_temperature;BME280_humidity;BME280_pressure;Samples;Min_cycle;Max_cycle;Signal;HPM_P1;HPM_P2
2021/09/22 00:00:22;;;;;;;29.33;25.10;;;;;;;;;;5061025;28;20412;-67
2021/09/22 00:02:48;;;;;;;28.88;24.33;;;;;;;;;;5064801;28;20037;-67
2021/09/22 00:05:15;;;;;;;33.33;25.17;;;;;;;;;;5057341;28;20037;-67
2021/09/22 00:07:41;;;;;;;29.45;24.73;;;;;;;;;;5065167;28;20437;-67
2021/09/22 00:10:09;;;;;;;25.20;22.60;;;;;;;;;;5059466;28;20564;-67
2021/09/22 00:12:35;;;;;;;31.83;24.00;;;;;;;;;;5064885;28;20484;-67
2021/09/22 00:15:01;;;;;;;31.48;26.23;;;;;;;;;;5054193;28;20037;-67
2021/09/22 00:17:28;;;;;;;29.35;26.13;;;;;;;;;;5068231;28;20119;-67
2021/09/22 00:19:54;;;;;;;39.78;28.88;;;;;;;;;;5052734;28;20377;-67
2021/09/22 00:22:20;;;;;;;34.63;26.60;;;;;;;;;;5057413;28;20060;-67
2021/09/22 00:24:46;;;;;;;36.50;26.98;;;;;;;;;;5050787;28;20044;-67
2021/09/22 00:27:12;;;;;;;31.17;25.90;;;;;;;;;;5058726;28;20144;-67
2021/09/22 00:29:38;;;;;;;31.05;25.05;;;;;;;;;;5053618;28;20052;-67
2021/09/22 00:32:04;;;;;;;31.35;25.23;;;;;;;;;;5064589;28;20119;-67
2021/09/22 00:34:30;;;;;;;27.80;24.10;;;;;;;;;;5052555;28;20151;-68
2021/09/22 00:36:56;;;;;;;35.83;25.63;;;;;;;;;;5062991;28;20056;-67
2021/09/22 00:39:22;;;;;;;47.85;27.42;;;;;;;;;;5059794;28;20037;-67
2021/09/22 00:41:48;;;;;;;25.95;22.65;;;;;;;;;;5058693;28;20032;-67
2021/09/22 00:44:14;;;;;;;27.73;23.73;;;;;;;;;;5065100;28;20140;-67
2021/09/22 00:46:40;;;;;;;29.42;23.35;;;;;;;;;;5057126;28;20036;-67
2021/09/22 00:49:07;;;;;;;25.75;21.83;;;;;;;;;;5057044;28;20454;-67
2021/09/22 00:51:33;;;;;;;26.15;22.95;;;;;;;;;;5062630;28;20523;-68
2021/09/22 00:53:59;;;;;;;26.23;22.67;;;;;;;;;;5047914;28;20164;-67
2021/09/22 00:56:25;;;;;;;28.90;23.52;;;;;;;;;;5055380;28;20046;-67
2021/09/22 00:58:51;;;;;;;26.80;22.45;;;;;;;;;;5061476;28;20450;-67
2021/09/22 01:01:18;;;;;;;25.25;21.25;;;;;;;;;;5060457;28;20039;-67
2021/09/22 01:03:44;;;;;;;27.15;21.58;;;;;;;;;;5064226;28;20036;-67
2021/09/22 01:06:14;;;;;;;27.38;22.55;;;;;;;;;;5049111;28;20040;-67
2021/09/22 01:08:41;;;;;;;25.02;21.45;;;;;;;;;;5059377;28;20666;-67
2021/09/22 01:11:07;;;;;;;22.65;20.23;;;;;;;;;;5061306;28;20163;-67
2021/09/22 01:13:33;;;;;;;22.58;20.15;;;;;;;;;;5061190;28;20048;-67
2021/09/22 01:15:59;;;;;;;22.27;19.73;;;;;;;;;;5057250;28;20056;-67
2021/09/22 01:18:26;;;;;;;27.52;20.67;;;;;;;;;;5054587;28;20393;-67
2021/09/22 01:20:57;;;;;;;22.70;19.85;;;;;;;;;;5062319;28;20044;-67
2021/09/22 01:23:24;;;;;;;24.15;19.15;;;;;;;;;;5052958;28;20393;-67
2021/09/22 01:25:51;;;;;;;24.40;20.90;;;;;;;;;;5064472;28;20080;-67
2021/09/22 01:28:18;;;;;;;22.98;19.92;;;;;;;;;;5055353;28;20144;-67
2021/09/22 01:30:44;;;;;;;26.05;20.88;;;;;;;;;;5061409;28;20047;-67
2021/09/22 01:33:11;;;;;;;21.88;19.70;;;;;;;;;;5048931;28;20048;-67
2021/09/22 01:35:39;;;;;;;21.42;19.25;;;;;;;;;;5064499;28;20045;-67
2021/09/22 01:38:05;;;;;;;20.30;17.83;;;;;;;;;;5059873;28;20043;-67
2021/09/22 01:40:31;;;;;;;25.48;21.17;;;;;;;;;;5062281;28;20033;-67
2021/09/22 01:42:58;;;;;;;21.83;19.13;;;;;;;;;;5056341;28;20060;-67
2021/09/22 01:45:24;;;;;;;26.48;21.13;;;;;;;;;;5065361;28;20055;-67
2021/09/22 01:47:50;;;;;;;25.73;21.75;;;;;;;;;;5060390;28;20036;-67
2021/09/22 01:50:18;;;;;;;19.92;18.08;;;;;;;;;;5065468;28;20059;-67
2021/09/22 01:52:44;;;;;;;19.38;16.85;;;;;;;;;;5057693;28;20053;-67
2021/09/22 01:55:11;;;;;;;21.75;19.05;;;;;;;;;;5068479;28;20442;-67
2021/09/22 01:57:37;;;;;;;28.27;22.38;;;;;;;;;;5054088;28;20182;-67
2021/09/22 02:00:05;;;;;;;24.83;20.08;;;;;;;;;;5062566;28;20137;-67
2021/09/22 02:02:31;;;;;;;27.15;21.10;;;;;;;;;;5058753;28;20033;-67
2021/09/22 02:04:57;;;;;;;21.17;18.20;;;;;;;;;;5060652;28;20069;-67
2021/09/22 02:07:23;;;;;;;24.20;19.23;;;;;;;;;;5064030;28;20052;-68
2021/09/22 02:09:49;;;;;;;24.58;20.42;;;;;;;;;;5060237;28;20500;-67
2021/09/22 02:12:16;;;;;;;34.35;24.13;;;;;;;;;;5062989;28;20076;-67
2021/09/22 02:14:42;;;;;;;21.77;18.50;;;;;;;;;;5058306;28;20114;-67
2021/09/22 02:17:08;;;;;;;20.85;17.73;;;;;;;;;;5064937;28;20044;-67
2021/09/22 02:19:35;;;;;;;25.80;21.35;;;;;;;;;;5061684;28;20041;-67
2021/09/22 02:22:01;;;;;;;20.75;18.55;;;;;;;;;;5063506;28;20028;-67
2021/09/22 02:24:27;;;;;;;24.73;20.63;;;;;;;;;;5059266;28;20042;-67
2021/09/22 02:26:53;;;;;;;20.23;17.95;;;;;;;;;;5061922;28;20040;-67
2021/09/22 02:29:19;;;;;;;20.40;16.65;;;;;;;;;;5060889;28;20075;-67
2021/09/22 02:31:49;;;;;;;20.90;18.20;;;;;;;;;;5066104;28;20048;-67
2021/09/22 02:34:15;;;;;;;20.60;18.42;;;;;;;;;;5058601;28;20043;-67
2021/09/22 02:36:42;;;;;;;23.27;19.30;;;;;;;;;;5060767;28;20059;-67
2021/09/22 02:39:09;;;;;;;27.38;20.52;;;;;;;;;;5061309;28;20044;-67
2021/09/22 02:41:35;;;;;;;19.70;17.63;;;;;;;;;;5056857;28;20044;-67
2021/09/22 02:44:01;;;;;;;26.20;19.85;;;;;;;;;;5062627;28;20136;-67
2021/09/22 02:46:28;;;;;;;18.15;16.13;;;;;;;;;;5059976;28;20531;-67
2021/09/22 02:48:54;;;;;;;23.15;18.67;;;;;;;;;;5068767;28;20405;-67
2021/09/22 02:51:20;;;;;;;21.13;18.55;;;;;;;;;;5058788;28;20037;-67
2021/09/22 02:53:47;;;;;;;21.80;17.45;;;;;;;;;;5062229;28;20882;-67
2021/09/22 02:56:13;;;;;;;22.55;19.33;;;;;;;;;;5055705;28;20041;-67
2021/09/22 02:58:39;;;;;;;22.58;19.63;;;;;;;;;;5062937;28;20041;-67
2021/09/22 03:01:05;;;;;;;22.02;19.55;;;;;;;;;;5055086;28;20047;-67
2021/09/22 03:03:31;;;;;;;19.90;17.65;;;;;;;;;;5065448;28;20090;-67
2021/09/22 03:05:57;;;;;;;28.77;22.02;;;;;;;;;;5053592;28;20124;-67
2021/09/22 03:08:24;;;;;;;41.55;24.15;;;;;;;;;;5061320;28;20137;-67
2021/09/22 03:10:50;;;;;;;36.03;24.08;;;;;;;;;;5058618;28;20043;-67
2021/09/22 03:13:16;;;;;;;23.08;19.40;;;;;;;;;;5066863;28;20052;-67
2021/09/22 03:15:42;;;;;;;19.35;17.25;;;;;;;;;;5059285;28;20036;-67
2021/09/22 03:18:08;;;;;;;22.25;19.85;;;;;;;;;;5062006;28;20409;-67
2021/09/22 03:20:34;;;;;;;26.38;19.95;;;;;;;;;;5061191;28;20040;-67
2021/09/22 03:23:00;;;;;;;18.52;16.52;;;;;;;;;;5061771;28;20052;-67
2021/09/22 03:25:26;;;;;;;18.88;16.20;;;;;;;;;;5062668;28;20044;-67
2021/09/22 03:27:52;;;;;;;17.83;16.05;;;;;;;;;;5052850;28;20257;-67
2021/09/22 03:30:19;;;;;;;18.67;16.70;;;;;;;;;;5069859;28;20047;-67
2021/09/22 03:32:45;;;;;;;19.33;17.33;;;;;;;;;;5058063;28;20473;-67
2021/09/22 03:35:11;;;;;;;26.33;19.80;;;;;;;;;;5055739;28;20041;-67
2021/09/22 03:37:37;;;;;;;17.95;16.05;;;;;;;;;;5058934;28;20041;-67
2021/09/22 03:40:04;;;;;;;18.70;16.70;;;;;;;;;;5063181;28;20040;-67
2021/09/22 03:42:30;;;;;;;28.23;19.95;;;;;;;;;;5058286;28;20033;-67
2021/09/22 03:44:56;;;;;;;54.17;26.13;;;;;;;;;;5065481;28;20048;-67
2021/09/22 03:47:22;;;;;;;21.60;19.27;;;;;;;;;;5059341;28;20036;-67
2021/09/22 03:49:48;;;;;;;31.92;21.10;;;;;;;;;;5064837;28;20121;-67
2021/09/22 03:52:14;;;;;;;106.07;29.08;;;;;;;;;;5060079;28;20094;-67
2021/09/22 03:54:40;;;;;;;48.65;25.25;;;;;;;;;;5065610;28;20037;-67
2021/09/22 03:57:06;;;;;;;22.27;20.08;;;;;;;;;;5064482;28;20048;-67
2021/09/22 03:59:32;;;;;;;76.18;25.15;;;;;;;;;;5055267;28;20392;-67
2021/09/22 04:01:58;;;;;;;136.90;36.28;;;;;;;;;;5063311;28;20032;-67
2021/09/22 04:04:25;;;;;;;253.15;48.10;;;;;;;;;;5059705;28;20048;-67
2021/09/22 04:06:51;;;;;;;243.60;46.90;;;;;;;;;;5064557;28;20459;-67
2021/09/22 04:09:18;;;;;;;93.80;36.70;;;;;;;;;;5057876;28;20102;-67
2021/09/22 04:11:44;;;;;;;193.07;42.58;;;;;;;;;;5064953;28;20052;-67
2021/09/22 04:14:10;;;;;;;83.03;31.65;;;;;;;;;;5051856;28;20048;-68
2021/09/22 04:16:36;;;;;;;113.97;39.70;;;;;;;;;;5064749;28;20041;-67
2021/09/22 04:19:02;;;;;;;160.25;44.17;;;;;;;;;;5059720;28;20054;-67
2021/09/22 04:21:28;;;;;;;111.93;34.75;;;;;;;;;;5066273;28;20048;-67
2021/09/22 04:23:55;;;;;;;48.85;30.48;;;;;;;;;;5054631;28;20120;-68
2021/09/22 04:26:21;;;;;;;178.30;36.83;;;;;;;;;;5063634;28;20036;-68
2021/09/22 04:28:47;;;;;;;111.47;35.17;;;;;;;;;;5057409;28;20052;-68
2021/09/22 04:31:13;;;;;;;140.57;31.63;;;;;;;;;;5062364;28;20105;-67
2021/09/22 04:33:39;;;;;;;42.72;27.77;;;;;;;;;;5059412;28;20368;-67
2021/09/22 04:36:05;;;;;;;128.52;35.33;;;;;;;;;;5063570;28;20043;-68
2021/09/22 04:38:31;;;;;;;69.47;33.15;;;;;;;;;;5066842;28;20108;-68
2021/09/22 04:40:57;;;;;;;269.63;43.13;;;;;;;;;;5058842;28;20037;-68
2021/09/22 04:43:23;;;;;;;127.00;37.15;;;;;;;;;;5063217;28;20480;-68
2021/09/22 04:45:49;;;;;;;80.70;37.03;;;;;;;;;;5059634;28;20037;-68
2021/09/22 04:48:16;;;;;;;136.55;38.15;;;;;;;;;;5066871;28;20051;-68
2021/09/22 04:50:42;;;;;;;122.28;34.67;;;;;;;;;;5055956;28;20060;-68
2021/09/22 04:53:08;;;;;;;307.60;55.55;;;;;;;;;;5043918;28;20086;-68
2021/09/22 04:55:34;;;;;;;205.05;39.20;;;;;;;;;;5053009;28;20208;-68
2021/09/22 04:58:00;;;;;;;342.65;55.78;;;;;;;;;;5067314;28;20642;-68
2021/09/22 05:00:26;;;;;;;69.32;33.33;;;;;;;;;;5055049;28;20040;-68
2021/09/22 05:02:52;;;;;;;203.27;46.42;;;;;;;;;;5064428;28;20098;-68
2021/09/22 05:05:18;;;;;;;268.65;49.88;;;;;;;;;;5061175;28;20453;-68
2021/09/22 05:07:44;;;;;;;127.18;40.95;;;;;;;;;;5059637;28;20056;-68
2021/09/22 05:10:11;;;;;;;72.30;31.27;;;;;;;;;;5055935;28;20044;-68
2021/09/22 05:12:37;;;;;;;41.47;30.52;;;;;;;;;;5065127;28;20123;-68
2021/09/22 05:15:04;;;;;;;106.82;33.85;;;;;;;;;;5049271;28;20063;-68
2021/09/22 05:17:30;;;;;;;108.15;33.45;;;;;;;;;;5053835;28;20125;-68
2021/09/22 05:19:56;;;;;;;45.45;30.83;;;;;;;;;;5063554;28;20037;-68
2021/09/22 05:22:22;;;;;;;45.08;32.30;;;;;;;;;;5062419;28;20684;-68
2021/09/22 05:24:48;;;;;;;153.55;42.00;;;;;;;;;;5065337;28;20040;-68
2021/09/22 05:27:14;;;;;;;217.85;45.97;;;;;;;;;;5061281;28;20507;-68
2021/09/22 05:29:41;;;;;;;71.40;33.35;;;;;;;;;;5068303;28;20501;-68
2021/09/22 05:32:07;;;;;;;274.35;47.45;;;;;;;;;;5063044;28;20129;-68
2021/09/22 05:34:33;;;;;;;174.18;43.45;;;;;;;;;;5058415;28;20055;-68
2021/09/22 05:36:59;;;;;;;62.22;35.30;;;;;;;;;;5062206;28;20068;-67
2021/09/22 05:39:25;;;;;;;65.72;36.03;;;;;;;;;;5066183;28;20127;-67
2021/09/22 05:41:51;;;;;;;133.32;38.35;;;;;;;;;;5059946;28;20037;-67
2021/09/22 05:44:17;;;;;;;91.88;36.40;;;;;;;;;;5066473;28;20105;-67
2021/09/22 05:46:43;;;;;;;54.72;35.05;;;;;;;;;;5063622;28;21108;-67
2021/09/22 05:49:09;;;;;;;135.95;44.53;;;;;;;;;;5060826;28;20046;-67
2021/09/22 05:51:35;;;;;;;120.32;42.50;;;;;;;;;;5058914;28;20086;-67
2021/09/22 05:54:01;;;;;;;229.20;50.55;;;;;;;;;;5065330;28;20036;-67
2021/09/22 05:56:27;;;;;;;113.50;40.30;;;;;;;;;;5066802;28;20044;-67
2021/09/22 05:58:53;;;;;;;122.75;43.42;;;;;;;;;;5056694;28;20041;-67
2021/09/22 06:01:20;;;;;;;156.43;42.80;;;;;;;;;;5062111;28;20128;-68
2021/09/22 06:03:46;;;;;;;96.90;39.22;;;;;;;;;;5056532;28;20053;-68
2021/09/22 06:06:12;;;;;;;134.02;44.17;;;;;;;;;;5058339;28;20041;-68
2021/09/22 06:08:38;;;;;;;62.10;37.33;;;;;;;;;;5054606;28;20091;-68
2021/09/22 06:11:04;;;;;;;67.30;39.22;;;;;;;;;;5065087;28;20516;-68
2021/09/22 06:13:31;;;;;;;125.68;47.35;;;;;;;;;;5056704;28;20374;-68
2021/09/22 06:15:57;;;;;;;75.65;40.45;;;;;;;;;;5067897;28;20098;-68
2021/09/22 06:18:23;;;;;;;64.93;36.78;;;;;;;;;;5057635;28;20036;-68
2021/09/22 06:20:49;;;;;;;57.15;36.75;;;;;;;;;;5061422;28;20055;-68
2021/09/22 06:23:16;;;;;;;80.00;39.28;;;;;;;;;;5044898;28;20105;-68
2021/09/22 06:25:42;;;;;;;57.67;37.72;;;;;;;;;;5070206;28;20044;-68
2021/09/22 06:28:08;;;;;;;61.67;40.40;;;;;;;;;;5053623;28;20102;-68
2021/09/22 06:30:34;;;;;;;189.57;51.75;;;;;;;;;;5062099;28;20429;-68
2021/09/22 06:33:00;;;;;;;69.60;39.92;;;;;;;;;;5057916;28;20052;-69
2021/09/22 06:35:27;;;;;;;108.90;46.47;;;;;;;;;;5056937;28;20040;-67
2021/09/22 06:37:53;;;;;;;108.82;48.65;;;;;;;;;;5062135;28;20093;-68
2021/09/22 06:40:20;;;;;;;108.88;47.45;;;;;;;;;;5052956;28;20033;-68
2021/09/22 06:42:47;;;;;;;95.53;46.22;;;;;;;;;;5063846;28;20047;-68
2021/09/22 06:45:13;;;;;;;66.95;42.05;;;;;;;;;;5058704;28;20127;-69
2021/09/22 06:47:39;;;;;;;86.90;45.45;;;;;;;;;;5062215;28;20224;-67
2021/09/22 06:50:06;;;;;;;77.03;44.17;;;;;;;;;;5054215;28;20128;-67
2021/09/22 06:52:32;;;;;;;65.57;42.08;;;;;;;;;;5061691;28;20106;-68
2021/09/22 06:54:59;;;;;;;70.95;42.40;;;;;;;;;;5055194;28;20076;-68
2021/09/22 06:57:25;;;;;;;67.85;44.28;;;;;;;;;;5069611;28;20047;-68
2021/09/22 06:59:52;;;;;;;63.33;42.88;;;;;;;;;;5058504;28;20386;-68
2021/09/22 07:02:18;;;;;;;81.65;47.22;;;;;;;;;;5065554;28;20041;-68
2021/09/22 07:04:44;;;;;;;68.25;44.65;;;;;;;;;;5061023;28;20060;-68
2021/09/22 07:07:10;;;;;;;68.05;44.22;;;;;;;;;;5060357;28;20044;-68
2021/09/22 07:09:37;;;;;;;71.72;44.92;;;;;;;;;;5063575;28;20543;-68
2021/09/22 07:12:03;;;;;;;63.67;43.72;;;;;;;;;;5061951;28;20461;-68
2021/09/22 07:14:29;;;;;;;65.13;43.17;;;;;;;;;;5068434;28;20066;-68
2021/09/22 07:16:55;;;;;;;58.15;42.28;;;;;;;;;;5054454;28;20072;-68
2021/09/22 07:19:21;;;;;;;63.05;44.15;;;;;;;;;;5064163;28;20107;-68
2021/09/22 07:21:47;;;;;;;69.57;46.08;;;;;;;;;;5062449;28;20075;-68
2021/09/22 07:24:13;;;;;;;57.78;42.22;;;;;;;;;;5065474;28;20036;-68
2021/09/22 07:26:40;;;;;;;63.83;44.00;;;;;;;;;;5059488;28;20119;-68
2021/09/22 07:29:09;;;;;;;57.10;43.42;;;;;;;;;;5063552;28;20084;-68
2021/09/22 07:31:36;;;;;;;54.40;40.47;;;;;;;;;;5060639;28;20036;-68
2021/09/22 07:34:02;;;;;;;48.88;40.03;;;;;;;;;;5056930;28;20056;-68
2021/09/22 07:36:30;;;;;;;57.10;42.25;;;;;;;;;;5057756;28;20036;-68
2021/09/22 07:38:56;;;;;;;56.10;43.50;;;;;;;;;;5065345;28;20037;-68
2021/09/22 07:41:22;;;;;;;56.95;43.88;;;;;;;;;;5062292;28;20037;-68
2021/09/22 07:43:48;;;;;;;61.35;46.33;;;;;;;;;;5063912;28;20051;-68
2021/09/22 07:46:14;;;;;;;53.65;44.35;;;;;;;;;;5059586;28;20040;-68
2021/09/22 07:48:40;;;;;;;50.97;43.13;;;;;;;;;;5068287;28;20048;-68
2021/09/22 07:51:06;;;;;;;54.08;44.85;;;;;;;;;;5064754;28;20519;-68
2021/09/22 07:53:32;;;;;;;58.00;44.35;;;;;;;;;;5054217;28;20037;-68
2021/09/22 07:55:59;;;;;;;58.20;45.60;;;;;;;;;;5063991;28;20055;-68
2021/09/22 07:58:25;;;;;;;51.83;41.90;;;;;;;;;;5063783;28;20040;-68
2021/09/22 08:00:51;;;;;;;53.88;45.88;;;;;;;;;;5062489;28;20037;-68
2021/09/22 08:03:17;;;;;;;53.65;45.42;;;;;;;;;;5057277;28;20071;-68
2021/09/22 08:05:43;;;;;;;55.15;45.80;;;;;;;;;;5066616;28;20537;-68
2021/09/22 08:08:10;;;;;;;55.22;46.75;;;;;;;;;;5059934;28;20511;-68
2021/09/22 08:10:36;;;;;;;52.45;46.72;;;;;;;;;;5057658;28;20493;-68
2021/09/22 08:13:03;;;;;;;50.15;44.72;;;;;;;;;;5055402;28;20583;-68
2021/09/22 08:15:29;;;;;;;50.97;45.35;;;;;;;;;;5065474;28;20036;-68
2021/09/22 08:17:55;;;;;;;51.75;46.25;;;;;;;;;;5055757;28;20045;-69
2021/09/22 08:20:21;;;;;;;48.30;43.40;;;;;;;;;;5060396;28;20114;-69
2021/09/22 08:22:48;;;;;;;48.58;43.47;;;;;;;;;;5056488;28;20141;-69
2021/09/22 08:25:15;;;;;;;46.80;42.20;;;;;;;;;;5067809;28;20118;-69
2021/09/22 08:27:41;;;;;;;45.65;40.97;;;;;;;;;;5057067;28;20550;-69
2021/09/22 08:30:09;;;;;;;44.85;40.55;;;;;;;;;;5061002;28;20143;-69
2021/09/22 08:32:35;;;;;;;45.03;40.40;;;;;;;;;;5061876;28;20036;-69
2021/09/22 08:35:01;;;;;;;42.10;37.85;;;;;;;;;;5059040;28;20493;-69
2021/09/22 08:37:27;;;;;;;40.92;37.10;;;;;;;;;;5057886;28;20037;-69
2021/09/22 08:39:54;;;;;;;41.47;37.47;;;;;;;;;;5050779;28;20527;-69
2021/09/22 08:42:20;;;;;;;38.67;34.83;;;;;;;;;;5063103;28;20052;-69
2021/09/22 08:44:46;;;;;;;39.92;36.13;;;;;;;;;;5057483;28;20044;-69
2021/09/22 08:47:12;;;;;;;38.63;34.97;;;;;;;;;;5054013;28;20044;-69
2021/09/22 08:49:40;;;;;;;36.28;32.92;;;;;;;;;;5055563;28;20044;-69
2021/09/22 08:52:06;;;;;;;36.22;32.75;;;;;;;;;;5064144;28;20643;-68
2021/09/22 08:54:33;;;;;;;35.03;31.63;;;;;;;;;;5053594;28;20056;-69
2021/09/22 08:57:03;;;;;;;33.92;30.77;;;;;;;;;;5069247;28;20037;-69
2021/09/22 08:59:29;;;;;;;33.90;30.73;;;;;;;;;;5057902;28;20116;-70
2021/09/22 09:02:06;;;;;;;31.55;28.75;;;;;;;;;;5054581;28;20044;-69
2021/09/22 09:04:32;;;;;;;31.20;28.38;;;;;;;;;;5057861;28;20065;-69
2021/09/22 09:06:59;;;;;;;30.35;27.40;;;;;;;;;;5065863;28;20045;-69
2021/09/22 09:09:35;;;;;;;29.08;26.58;;;;;;;;;;5057599;28;20101;-69
2021/09/22 09:12:02;;;;;;;27.95;25.27;;;;;;;;;;5067359;28;20057;-70
2021/09/22 09:14:32;;;;;;;28.38;25.55;;;;;;;;;;5062346;28;20071;-70
2021/09/22 09:17:01;;;;;;;26.73;24.27;;;;;;;;;;5066296;28;20125;-70
2021/09/22 09:19:27;;;;;;;24.65;22.35;;;;;;;;;;5071331;28;20033;-70
2021/09/22 09:22:01;;;;;;;22.48;20.35;;;;;;;;;;5062347;28;20040;-70
2021/09/22 09:24:33;;;;;;;23.50;21.25;;;;;;;;;;5066744;28;20032;-70
2021/09/22 09:27:00;;;;;;;23.92;21.80;;;;;;;;;;5064155;28;20045;-70
2021/09/22 09:29:26;;;;;;;24.58;22.00;;;;;;;;;;5069155;28;20446;-70
2021/09/22 09:32:09;;;;;;;20.73;18.88;;;;;;;;;;5061116;28;20068;-70
2021/09/22 09:34:35;;;;;;;23.73;21.42;;;;;;;;;;5061890;28;20053;-70
2021/09/22 09:37:01;;;;;;;22.52;20.35;;;;;;;;;;5058996;28;20130;-69
2021/09/22 09:39:30;;;;;;;22.52;20.40;;;;;;;;;;5068261;28;20044;-69
2021/09/22 09:41:57;;;;;;;20.98;18.92;;;;;;;;;;5061679;28;20459;-69
2021/09/22 09:44:27;;;;;;;19.92;18.02;;;;;;;;;;5065244;28;20033;-70
2021/09/22 09:46:54;;;;;;;19.90;18.02;;;;;;;;;;5063052;28;20041;-70
2021/09/22 09:49:22;;;;;;;20.58;18.55;;;;;;;;;;5069774;28;20578;-70
2021/09/22 09:51:48;;;;;;;19.15;17.35;;;;;;;;;;5055303;28;20044;-69
2021/09/22 09:54:16;;;;;;;18.10;16.30;;;;;;;;;;5065790;28;20573;-70
2021/09/22 09:56:42;;;;;;;19.20;17.30;;;;;;;;;;5059326;28;20037;-70
2021/09/22 09:59:09;;;;;;;18.50;16.50;;;;;;;;;;5066622;28;20063;-70
2021/09/22 10:01:42;;;;;;;18.83;17.08;;;;;;;;;;5057659;28;20520;-70
2021/09/22 10:04:10;;;;;;;17.10;15.40;;;;;;;;;;5065543;28;20105;-70
2021/09/22 10:06:36;;;;;;;17.05;15.35;;;;;;;;;;5061978;28;20048;-70
2021/09/22 10:09:03;;;;;;;16.15;14.65;;;;;;;;;;5050376;28;20083;-70
2021/09/22 10:11:31;;;;;;;16.25;14.20;;;;;;;;;;5064347;28;20095;-70
2021/09/22 10:13:57;;;;;;;15.20;12.05;;;;;;;;;;5063426;28;20041;-70
2021/09/22 10:16:23;;;;;;;15.20;13.55;;;;;;;;;;5067576;28;20120;-70
2021/09/22 10:18:49;;;;;;;15.35;13.35;;;;;;;;;;5054324;28;20107;-70
2021/09/22 10:21:19;;;;;;;17.52;13.35;;;;;;;;;;5065549;28;20489;-70
2021/09/22 10:23:46;;;;;;;14.55;13.10;;;;;;;;;;5058123;28;20044;-70
2021/09/22 10:26:12;;;;;;;14.55;13.20;;;;;;;;;;5069933;28;20437;-70
2021/09/22 10:28:42;;;;;;;14.70;13.20;;;;;;;;;;5056863;28;20041;-70
2021/09/22 10:31:14;;;;;;;15.43;13.77;;;;;;;;;;5068030;28;20032;-70
2021/09/22 10:33:43;;;;;;;14.93;13.43;;;;;;;;;;5061001;28;20033;-70
2021/09/22 10:36:09;;;;;;;14.45;12.95;;;;;;;;;;5069217;28;20068;-70
2021/09/22 10:38:49;;;;;;;14.30;12.77;;;;;;;;;;5058479;28;20080;-70
2021/09/22 10:41:26;;;;;;;15.07;12.52;;;;;;;;;;5066980;28;20032;-70
2021/09/22 10:43:52;;;;;;;13.68;12.27;;;;;;;;;;5058555;28;20035;-69
2021/09/22 10:46:19;;;;;;;14.57;12.07;;;;;;;;;;5067528;28;20072;-69
2021/09/22 10:48:51;;;;;;;14.57;12.27;;;;;;;;;;5059152;28;20397;-69
2021/09/22 10:51:34;;;;;;;14.98;13.35;;;;;;;;;;5057821;28;20099;-69
2021/09/22 10:54:27;;;;;;;15.48;12.93;;;;;;;;;;5059562;28;20055;-69
2021/09/22 10:56:58;;;;;;;15.95;13.70;;;;;;;;;;5068163;28;20466;-69
2021/09/22 10:59:28;;;;;;;16.73;13.88;;;;;;;;;;5055555;28;20076;-69
2021/09/22 11:01:54;;;;;;;16.02;14.32;;;;;;;;;;5063597;28;20349;-69
2021/09/22 11:04:21;;;;;;;16.77;14.95;;;;;;;;;;5062032;28;20485;-69
2021/09/22 11:06:47;;;;;;;16.65;14.75;;;;;;;;;;5061804;28;20366;-69
2021/09/22 11:09:23;;;;;;;16.83;15.07;;;;;;;;;;5051343;28;20080;-69
2021/09/22 11:11:56;;;;;;;19.20;14.82;;;;;;;;;;5064743;28;20512;-69
2021/09/22 11:14:28;;;;;;;16.38;14.40;;;;;;;;;;5060697;28;20051;-69
2021/09/22 11:16:55;;;;;;;16.60;12.40;;;;;;;;;;5063550;28;20067;-69
2021/09/22 11:19:21;;;;;;;18.48;14.15;;;;;;;;;;5055703;28;20041;-67
2021/09/22 11:21:48;;;;;;;18.50;14.38;;;;;;;;;;5061179;28;20045;-66
2021/09/22 11:24:15;;;;;;;17.58;15.13;;;;;;;;;;5068154;28;20032;-66
2021/09/22 11:27:08;;;;;;;15.27;12.80;;;;;;;;;;5061562;28;20514;-66
2021/09/22 11:29:49;;;;;;;14.13;12.05;;;;;;;;;;5060979;28;20044;-67
2021/09/22 11:32:28;;;;;;;14.60;11.60;;;;;;;;;;5056305;28;20041;-66
2021/09/22 11:34:55;;;;;;;16.35;12.30;;;;;;;;;;5059641;28;20056;-66
2021/09/22 11:37:21;;;;;;;17.83;12.23;;;;;;;;;;5064201;28;20109;-70
2021/09/22 11:39:47;;;;;;;15.77;11.82;;;;;;;;;;5060466;28;20477;-70
2021/09/22 11:42:15;;;;;;;14.13;11.45;;;;;;;;;;5055723;28;20059;-70
2021/09/22 11:44:42;;;;;;;15.05;10.70;;;;;;;;;;5065744;28;20041;-70
2021/09/22 11:47:09;;;;;;;14.52;11.85;;;;;;;;;;5063824;28;20045;-70
2021/09/22 11:49:42;;;;;;;14.63;10.68;;;;;;;;;;5064558;28;20464;-70
2021/09/22 11:52:08;;;;;;;;;;;;;;;;;;5057245;28;20049;-70
2021/09/22 11:54:34;;;;;;;14.02;11.77;;;;;;;;;;5065075;28;19927;-70
2021/09/22 11:57:01;;;;;;;12.55;10.90;;;;;;;;;;5060449;28;20036;-70
2021/09/22 11:59:35;;;;;;;14.38;10.77;;;;;;;;;;5064028;28;20028;-70
2021/09/22 12:02:01;;;;;;;15.13;12.25;;;;;;;;;;5058801;28;20032;-70
2021/09/22 12:04:54;;;;;;;14.05;12.57;;;;;;;;;;5067066;28;20083;-70
2021/09/22 12:07:28;;;;;;;15.80;12.43;;;;;;;;;;5052191;28;20488;-70
2021/09/22 12:09:58;;;;;;;13.43;11.98;;;;;;;;;;5063480;28;20497;-70
2021/09/22 12:12:24;;;;;;;17.20;10.77;;;;;;;;;;5058281;28;20123;-70
2021/09/22 12:14:50;;;;;;;14.52;10.05;;;;;;;;;;5063549;28;20049;-69
2021/09/22 12:17:17;;;;;;;12.40;9.48;;;;;;;;;;5060709;28;20047;-70
2021/09/22 12:19:44;;;;;;;13.38;9.80;;;;;;;;;;5061331;28;20120;-69
2021/09/22 12:22:10;;;;;;;12.57;9.45;;;;;;;;;;5061263;28;20045;-69
2021/09/22 12:24:40;;;;;;;14.40;8.73;;;;;;;;;;5068676;28;20036;-69
2021/09/22 12:27:14;;;;;;;10.23;7.53;;;;;;;;;;5060899;28;20079;-69
2021/09/22 12:29:56;;;;;;;13.43;8.18;;;;;;;;;;5059230;28;20040;-69
2021/09/22 12:32:23;;;;;;;11.75;6.95;;;;;;;;;;5034110;28;20138;-69
2021/09/22 12:34:50;;;;;;;13.15;6.90;;;;;;;;;;5066392;28;20044;-69
2021/09/22 12:37:17;;;;;;;12.23;7.22;;;;;;;;;;5062734;28;20536;-69
2021/09/22 12:40:12;;;;;;;11.60;7.65;;;;;;;;;;5055441;28;20083;-69
2021/09/22 12:42:44;;;;;;;11.27;7.35;;;;;;;;;;5050057;28;20048;-69
2021/09/22 12:45:11;;;;;;;12.27;7.15;;;;;;;;;;5065508;28;20041;-69
2021/09/22 12:47:48;;;;;;;10.98;6.88;;;;;;;;;;5061115;28;20039;-69
2021/09/22 12:50:25;;;;;;;10.65;6.53;;;;;;;;;;5059703;28;20131;-69
2021/09/22 12:52:51;;;;;;;10.82;6.32;;;;;;;;;;5059925;28;20049;-69
2021/09/22 12:55:41;;;;;;;11.02;6.10;;;;;;;;;;5056093;28;20247;-69
2021/09/22 12:58:07;;;;;;;8.32;5.95;;;;;;;;;;5056836;28;20168;-70
2021/09/22 13:00:34;;;;;;;10.35;5.60;;;;;;;;;;5059201;28;20506;-69
2021/09/22 13:03:07;;;;;;;10.00;5.70;;;;;;;;;;5062189;28;20033;-69
2021/09/22 13:05:37;;;;;;;10.07;5.73;;;;;;;;;;5057181;28;20565;-69
2021/09/22 13:08:06;;;;;;;9.85;5.32;;;;;;;;;;5063272;28;20611;-69
2021/09/22 13:10:49;;;;;;;8.18;5.15;;;;;;;;;;5053938;28;20059;-69
2021/09/22 13:13:16;;;;;;;8.85;5.15;;;;;;;;;;5055410;28;20083;-69
2021/09/22 13:15:42;;;;;;;12.00;6.00;;;;;;;;;;5059865;28;20506;-69
2021/09/22 13:18:08;;;;;;;10.95;5.63;;;;;;;;;;5061226;28;20053;-69
2021/09/22 13:20:34;;;;;;;12.48;6.43;;;;;;;;;;5051948;28;20499;-69
2021/09/22 13:23:01;;;;;;;13.52;6.32;;;;;;;;;;5065454;28;20044;-69
2021/09/22 13:25:27;;;;;;;10.77;6.28;;;;;;;;;;5059277;28;20043;-70
2021/09/22 13:27:53;;;;;;;9.18;5.95;;;;;;;;;;5061275;28;20048;-69
2021/09/22 13:30:19;;;;;;;10.02;6.50;;;;;;;;;;5053260;28;20045;-67
2021/09/22 13:32:49;;;;;;;13.02;5.47;;;;;;;;;;5056711;28;20060;-67
2021/09/22 13:35:15;;;;;;;8.70;5.47;;;;;;;;;;5049906;28;20072;-67
2021/09/22 13:37:41;;;;;;;11.93;6.30;;;;;;;;;;5059400;28;20036;-67
2021/09/22 13:40:08;;;;;;;9.40;6.15;;;;;;;;;;5055247;28;20043;-67
2021/09/22 13:42:34;;;;;;;11.60;6.57;;;;;;;;;;5057244;28;20269;-67
2021/09/22 13:45:00;;;;;;;10.57;6.32;;;;;;;;;;5053319;28;20331;-67
2021/09/22 13:47:26;;;;;;;10.10;5.40;;;;;;;;;;5064553;28;20048;-67
2021/09/22 13:49:52;;;;;;;9.10;6.78;;;;;;;;;;5070147;28;20123;-67
2021/09/22 13:52:18;;;;;;;10.10;6.28;;;;;;;;;;5055387;28;20091;-67
2021/09/22 13:54:44;;;;;;;10.13;5.97;;;;;;;;;;5066777;28;20408;-66
2021/09/22 13:57:10;;;;;;;11.32;5.80;;;;;;;;;;5064318;28;20072;-66
2021/09/22 13:59:39;;;;;;;11.18;6.65;;;;;;;;;;5064091;28;20041;-66
2021/09/22 14:02:05;;;;;;;11.15;6.75;;;;;;;;;;5056594;28;20048;-66
2021/09/22 14:04:31;;;;;;;9.35;6.80;;;;;;;;;;5067267;28;20037;-66
2021/09/22 14:06:57;;;;;;;9.40;6.72;;;;;;;;;;5058028;28;20045;-66
2021/09/22 14:09:23;;;;;;;9.23;5.68;;;;;;;;;;5064741;28;20127;-66
2021/09/22 14:11:49;;;;;;;10.93;6.20;;;;;;;;;;5061041;28;20476;-66
2021/09/22 14:14:15;;;;;;;10.98;7.07;;;;;;;;;;5062666;28;20036;-67
2021/09/22 14:16:42;;;;;;;13.00;6.85;;;;;;;;;;5058209;28;20064;-66
2021/09/22 14:19:08;;;;;;;13.88;7.43;;;;;;;;;;5063283;28;20040;-68